Time;durP1;ratioP1;P1;durP2;ratioP2;P2;SDS_P1;SDS_P2;PMS_P1;PMS_P2;Temp;Humidity;BMP_temperature;BMP_pressure;BME280_temperature;BME280_humidity;BME280_pressure;Samples;Min_cycle;Max_cycle;Signal;HPM_P1;HPM_P2
2021/06/05 00:00:46;;;;;;;24.13;21.73;;;17.40;99.90;;;;;;5007898;28;20211;-67
2021/06/05 00:03:14;;;;;;;25.33;22.27;;;17.40;99.90;;;;;;5004674;28;20178;-67
2021/06/05 00:05:46;;;;;;;24.00;21.50;;;17.40;99.90;;;;;;5003870;28;20519;-67
2021/06/05 00:08:13;;;;;;;23.50;21.03;;;17.30;99.90;;;;;;5007246;28;20443;-67
2021/06/05 00:10:43;;;;;;;25.57;22.03;;;17.30;99.90;;;;;;5007180;28;20464;-67
2021/06/05 00:13:22;;;;;;;26.60;22.83;;;17.30;99.90;;;;;;5007591;28;20444;-67
2021/06/05 00:15:48;;;;;;;26.27;23.57;;;17.30;99.90;;;;;;5000631;28;20448;-67
2021/06/05 00:18:14;;;;;;;24.77;22.07;;;17.30;99.90;;;;;;5002242;28;20515;-67
2021/06/05 00:20:41;;;;;;;21.90;19.70;;;17.30;99.90;;;;;;5006558;28;20909;-67
2021/06/05 00:23:09;;;;;;;21.50;19.40;;;17.30;99.90;;;;;;5004862;28;20432;-67
2021/06/05 00:25:35;;;;;;;23.47;20.97;;;17.20;99.90;;;;;;4998339;28;20515;-67
2021/06/05 00:28:00;;;;;;;24.50;21.53;;;17.20;99.90;;;;;;5003362;28;20563;-67
2021/06/05 00:30:27;;;;;;;22.10;19.70;;;17.20;99.90;;;;;;5006807;28;20213;-67
2021/06/05 00:32:53;;;;;;;23.83;20.17;;;17.20;99.90;;;;;;5007235;28;20222;-67
2021/06/05 00:35:19;;;;;;;21.83;19.53;;;17.20;99.90;;;;;;5000237;28;20576;-67
2021/06/05 00:37:45;;;;;;;24.90;21.17;;;17.20;99.90;;;;;;5005506;28;20228;-67
2021/06/05 00:40:13;;;;;;;24.07;21.67;;;17.20;99.90;;;;;;5006920;28;20454;-67
2021/06/05 00:42:39;;;;;;;22.13;19.77;;;17.20;99.90;;;;;;5007363;28;20208;-67
2021/06/05 00:45:10;;;;;;;21.07;18.97;;;17.10;99.90;;;;;;5006058;28;20422;-67
2021/06/05 00:47:36;;;;;;;22.33;19.63;;;17.10;99.90;;;;;;5004431;28;20199;-67
2021/06/05 00:50:02;;;;;;;24.70;19.73;;;17.10;99.90;;;;;;5011353;28;20834;-67
2021/06/05 00:52:29;;;;;;;20.83;18.63;;;17.10;99.90;;;;;;5008908;28;20556;-67
2021/06/05 00:54:55;;;;;;;19.07;16.70;;;17.10;99.90;;;;;;5007627;28;20470;-67
2021/06/05 00:57:21;;;;;;;18.80;16.90;;;17.10;99.90;;;;;;5005586;28;20456;-67
2021/06/05 00:59:46;;;;;;;19.87;17.90;;;17.10;99.90;;;;;;5011436;28;20451;-67
2021/06/05 01:02:12;;;;;;;19.10;17.17;;;17.10;99.90;;;;;;5011434;28;20188;-67
2021/06/05 01:04:38;;;;;;;35.00;26.87;;;17.10;99.90;;;;;;5006045;28;20193;-67
2021/06/05 01:07:18;;;;;;;36.63;26.50;;;17.00;99.90;;;;;;5010150;28;20197;-67
2021/06/05 01:10:00;;;;;;;33.10;25.50;;;17.00;99.90;;;;;;5009104;28;20459;-67
2021/06/05 01:12:47;;;;;;;29.60;25.40;;;17.00;99.90;;;;;;5003489;28;20423;-67
2021/06/05 01:15:16;;;;;;;30.97;22.40;;;17.00;99.90;;;;;;4999528;28;20461;-67
2021/06/05 01:17:53;;;;;;;30.67;23.20;;;17.00;99.90;;;;;;5011877;28;20432;-67
2021/06/05 01:20:48;;;;;;;25.30;21.10;;;17.00;99.90;;;;;;5021497;28;20437;-66
2021/06/05 01:23:29;;;;;;;26.33;21.87;;;17.10;99.90;;;;;;4999190;28;20425;-67
2021/06/05 01:26:03;;;;;;;24.83;21.90;;;17.10;99.90;;;;;;5006903;28;20441;-67
2021/06/05 01:28:31;;;;;;;24.27;21.03;;;17.10;99.90;;;;;;5007352;28;20437;-67
2021/06/05 01:30:59;;;;;;;23.70;20.40;;;17.10;99.90;;;;;;5009370;28;20553;-66
2021/06/05 01:33:28;;;;;;;22.83;20.43;;;17.10;99.90;;;;;;5009569;28;20878;-66
2021/06/05 01:35:54;;;;;;;24.70;21.33;;;17.20;99.90;;;;;;5007269;28;20428;-67
2021/06/05 01:38:26;;;;;;;31.93;24.83;;;17.20;99.90;;;;;;5009400;28;20471;-66
2021/06/05 01:40:53;;;;;;;53.73;32.10;;;17.20;99.90;;;;;;5011751;28;20793;-66
2021/06/05 01:43:22;;;;;;;57.77;31.87;;;17.20;99.90;;;;;;5008553;28;20436;-67
2021/06/05 01:45:48;;;;;;;59.53;32.43;;;17.30;99.90;;;;;;5009829;28;20428;-67
2021/06/05 01:48:15;;;;;;;70.63;38.20;;;17.20;99.90;;;;;;5008723;28;20977;-67
2021/06/05 01:50:44;;;;;;;66.47;38.10;;;17.30;99.90;;;;;;5011481;28;20460;-67
2021/06/05 01:53:15;;;;;;;64.67;37.30;;;17.30;99.90;;;;;;5007663;28;20475;-66
2021/06/05 01:55:51;;;;;;;65.80;36.53;;;17.30;99.90;;;;;;5009692;28;20479;-66
2021/06/05 01:58:19;;;;;;;69.80;37.60;;;17.30;99.90;;;;;;5009096;28;20431;-67
2021/06/05 02:00:50;;;;;;;65.57;36.50;;;17.30;99.90;;;;;;5008806;28;20444;-66
2021/06/05 02:03:17;;;;;;;66.03;36.33;;;17.30;99.90;;;;;;5009501;28;20490;-67
2021/06/05 02:05:44;;;;;;;72.60;38.40;;;17.40;99.90;;;;;;5006695;28;20440;-66
2021/06/05 02:08:13;;;;;;;77.30;39.30;;;17.40;99.90;;;;;;5009400;28;20486;-66
2021/06/05 02:10:39;;;;;;;69.50;37.70;;;17.40;99.90;;;;;;5007422;28;21000;-66
2021/06/05 02:13:10;;;;;;;68.77;37.10;;;17.30;99.90;;;;;;5007809;28;21029;-67
2021/06/05 02:15:50;;;;;;;66.70;36.70;;;17.40;99.90;;;;;;5010908;28;20455;-67
2021/06/05 02:18:20;;;;;;;83.43;41.23;;;17.40;99.90;;;;;;5010335;28;20518;-66
2021/06/05 02:21:01;;;;;;;74.80;39.97;;;17.40;99.90;;;;;;5008666;28;20424;-67
2021/06/05 02:23:47;;;;;;;78.43;41.00;;;17.40;99.90;;;;;;5006478;28;20999;-67
2021/06/05 02:26:16;;;;;;;89.33;42.40;;;17.40;99.90;;;;;;5005297;28;20903;-67
2021/06/05 02:28:42;;;;;;;87.47;41.40;;;17.40;99.90;;;;;;5008438;28;20441;-67
2021/06/05 02:31:10;;;;;;;90.33;41.97;;;17.40;99.90;;;;;;5009569;28;20459;-67
2021/06/05 02:33:37;;;;;;;94.70;43.77;;;17.40;99.90;;;;;;5007648;28;20443;-66
2021/06/05 02:36:03;;;;;;;89.60;43.90;;;17.40;99.90;;;;;;5006878;28;20424;-66
2021/06/05 02:38:30;;;;;;;94.93;43.60;;;17.40;99.90;;;;;;5008516;28;20768;-66
2021/06/05 02:40:57;;;;;;;93.30;41.60;;;17.30;99.90;;;;;;5009254;28;20964;-69
2021/06/05 02:43:30;;;;;;;106.73;44.57;;;17.40;99.90;;;;;;5008601;28;20436;-67
2021/06/05 02:46:01;;;;;;;93.53;43.13;;;17.40;99.90;;;;;;5009018;28;20503;-67
2021/06/05 02:48:50;;;;;;;103.23;42.37;;;17.40;99.90;;;;;;5007591;28;20431;-68
2021/06/05 02:51:20;;;;;;;103.27;42.70;;;17.40;99.90;;;;;;5008629;28;20515;-67
2021/06/05 02:53:45;;;;;;;104.23;43.53;;;17.40;99.90;;;;;;5004432;28;20972;-67
2021/06/05 02:56:11;;;;;;;116.40;45.17;;;17.40;99.90;;;;;;5000217;28;20416;-67
2021/06/05 02:58:38;;;;;;;110.97;44.60;;;17.40;99.90;;;;;;5010000;28;20607;-67
2021/06/05 03:01:06;;;;;;;106.70;44.53;;;17.40;99.90;;;;;;4998607;28;20185;-67
2021/06/05 03:03:32;;;;;;;112.07;46.70;;;17.40;99.90;;;;;;5006512;28;20790;-68
2021/06/05 03:05:58;;;;;;;111.53;46.73;;;17.50;99.90;;;;;;5006224;28;20440;-68
2021/06/05 03:08:27;;;;;;;102.17;46.63;;;17.50;99.90;;;;;;5008692;28;20441;-67
2021/06/05 03:10:53;;;;;;;106.20;47.40;;;17.50;99.90;;;;;;5007585;28;20467;-68
2021/06/05 03:13:20;;;;;;;111.97;48.57;;;17.50;99.90;;;;;;5003636;28;20433;-67
2021/06/05 03:15:47;;;;;;;105.23;45.40;;;17.50;99.90;;;;;;5001131;28;21053;-67
2021/06/05 03:18:14;;;;;;;106.70;48.50;;;17.50;99.90;;;;;;5009116;28;20487;-67
2021/06/05 03:20:43;;;;;;;114.53;49.13;;;17.50;99.90;;;;;;5007758;28;20906;-67
2021/06/05 03:23:10;;;;;;;101.40;48.67;;;17.50;99.90;;;;;;5005168;28;20443;-67
2021/06/05 03:25:36;;;;;;;105.90;47.33;;;17.50;99.90;;;;;;5007831;28;20947;-67
2021/06/05 03:28:03;;;;;;;112.27;48.77;;;17.60;99.90;;;;;;5000447;28;20429;-67
2021/06/05 03:30:30;;;;;;;121.93;53.00;;;17.60;99.90;;;;;;5008493;28;20468;-67
2021/06/05 03:32:57;;;;;;;112.53;51.13;;;17.60;99.90;;;;;;5004181;28;20428;-68
2021/06/05 03:35:23;;;;;;;105.27;50.17;;;17.60;99.90;;;;;;5002253;28;20897;-67
2021/06/05 03:37:49;;;;;;;108.20;50.57;;;17.60;99.90;;;;;;5005769;28;20484;-67
2021/06/05 03:40:18;;;;;;;111.33;48.60;;;17.60;99.90;;;;;;5008287;28;20478;-67
2021/06/05 03:42:44;;;;;;;114.07;52.70;;;17.70;99.90;;;;;;4991277;28;20761;-67
2021/06/05 03:45:10;;;;;;;119.40;52.47;;;17.70;99.90;;;;;;5006207;28;20424;-67
2021/06/05 03:47:37;;;;;;;108.77;52.53;;;17.70;99.90;;;;;;5000288;28;20177;-67
2021/06/05 03:50:05;;;;;;;109.30;50.90;;;17.70;99.90;;;;;;5021396;28;20464;-67
2021/06/05 03:52:31;;;;;;;105.00;49.67;;;17.70;99.90;;;;;;5002149;28;20435;-67
2021/06/05 03:54:56;;;;;;;120.40;51.93;;;17.70;99.90;;;;;;5000656;28;20939;-67
2021/06/05 03:57:24;;;;;;;104.17;50.77;;;17.70;99.90;;;;;;5008958;28;20186;-67
2021/06/05 03:59:53;;;;;;;107.33;53.90;;;17.70;99.90;;;;;;5008246;28;20205;-67
2021/06/05 04:02:20;;;;;;;99.67;52.20;;;17.70;99.90;;;;;;5006772;28;20428;-67
2021/06/05 04:04:45;;;;;;;109.93;55.50;;;17.80;99.90;;;;;;5004544;28;20439;-67
2021/06/05 04:07:11;;;;;;;100.50;55.13;;;17.80;99.90;;;;;;5008711;28;20772;-67
2021/06/05 04:09:39;;;;;;;99.90;50.10;;;17.80;99.90;;;;;;5008479;28;20656;-68
2021/06/05 04:12:05;;;;;;;106.60;54.03;;;17.80;99.90;;;;;;5006654;28;20173;-67
2021/06/05 04:14:31;;;;;;;94.53;52.33;;;17.80;99.90;;;;;;5005759;28;20429;-67
2021/06/05 04:16:57;;;;;;;105.90;53.20;;;17.80;99.90;;;;;;4998084;28;20439;-67
2021/06/05 04:19:23;;;;;;;97.27;48.47;;;17.70;99.90;;;;;;5007542;28;20542;-67
2021/06/05 04:21:48;;;;;;;100.63;50.30;;;17.70;99.90;;;;;;5003109;28;21715;-67
2021/06/05 04:24:14;;;;;;;94.53;51.20;;;17.70;99.90;;;;;;5007340;28;20192;-67
2021/06/05 04:26:40;;;;;;;88.90;49.73;;;17.70;99.90;;;;;;5010011;28;20174;-67
2021/06/05 04:29:05;;;;;;;82.10;46.93;;;17.70;99.90;;;;;;5010812;28;20671;-67
2021/06/05 04:31:31;;;;;;;93.07;50.80;;;17.70;99.90;;;;;;5010620;28;20541;-67
2021/06/05 04:33:56;;;;;;;73.00;46.63;;;17.80;99.90;;;;;;5006888;28;20174;-67
2021/06/05 04:36:22;;;;;;;72.73;44.83;;;17.80;99.90;;;;;;5007607;28;20178;-67
2021/06/05 04:38:48;;;;;;;77.97;49.57;;;17.80;99.90;;;;;;5010908;28;20209;-67
2021/06/05 04:41:16;;;;;;;77.27;47.07;;;17.80;99.90;;;;;;5009491;28;20516;-67
2021/06/05 04:43:42;;;;;;;73.73;46.10;;;17.80;99.90;;;;;;5009214;28;20433;-67
2021/06/05 04:46:09;;;;;;;72.33;45.00;;;17.80;99.90;;;;;;5011357;28;20422;-67
2021/06/05 04:48:36;;;;;;;75.47;46.27;;;17.80;99.90;;;;;;5010450;28;20523;-67
2021/06/05 04:51:02;;;;;;;72.50;44.20;;;17.80;99.90;;;;;;5009453;28;20456;-67
2021/06/05 04:53:28;;;;;;;71.40;44.30;;;17.80;99.90;;;;;;4999531;28;20787;-67
2021/06/05 04:55:53;;;;;;;68.83;45.67;;;17.80;99.90;;;;;;5012463;28;20428;-67
2021/06/05 04:58:19;;;;;;;72.07;44.90;;;17.80;99.90;;;;;;5010088;28;20268;-67
2021/06/05 05:00:47;;;;;;;72.83;45.00;;;17.80;99.90;;;;;;5010262;28;20208;-67
2021/06/05 05:03:14;;;;;;;71.53;44.27;;;17.80;99.90;;;;;;5010407;28;20177;-67
2021/06/05 05:05:40;;;;;;;68.63;45.23;;;17.70;99.90;;;;;;5010266;28;20470;-67
2021/06/05 05:08:12;;;;;;;68.63;43.50;;;17.70;99.90;;;;;;5010010;28;20869;-67
2021/06/05 05:10:43;;;;;;;71.07;46.03;;;17.80;99.90;;;;;;5007709;28;20450;-67
2021/06/05 05:13:12;;;;;;;83.27;48.23;;;17.80;99.90;;;;;;5008761;28;20433;-67
2021/06/05 05:15:38;;;;;;;78.13;48.90;;;17.80;99.90;;;;;;5003117;28;20907;-67
2021/06/05 05:18:04;;;;;;;81.23;46.93;;;17.80;99.90;;;;;;5012100;28;20425;-67
2021/06/05 05:20:33;;;;;;;77.43;47.70;;;17.80;99.90;;;;;;5010614;28;20428;-67
2021/06/05 05:23:00;;;;;;;83.47;48.87;;;17.80;99.90;;;;;;5000599;28;20190;-67
2021/06/05 05:25:26;;;;;;;72.30;47.17;;;17.90;99.90;;;;;;5006870;28;20428;-67
2021/06/05 05:27:52;;;;;;;76.43;47.17;;;17.90;99.90;;;;;;5006111;28;20507;-67
2021/06/05 05:30:47;;;;;;;79.60;47.60;;;18.00;99.90;;;;;;5012111;28;20197;-67
2021/06/05 05:33:12;;;;;;;75.17;46.67;;;18.00;99.90;;;;;;4997703;28;20178;-67
2021/06/05 05:35:38;;;;;;;73.80;45.90;;;18.10;99.90;;;;;;5012124;28;20954;-67
2021/06/05 05:38:06;;;;;;;67.57;43.47;;;18.10;99.90;;;;;;5010182;28;20248;-67
2021/06/05 05:40:34;;;;;;;72.60;46.50;;;18.20;99.90;;;;;;5007082;28;20196;-67
2021/06/05 05:43:00;;;;;;;65.90;44.47;;;18.20;99.90;;;;;;5009882;28;20968;-67
2021/06/05 05:45:26;;;;;;;70.43;46.67;;;18.20;99.90;;;;;;5009363;28;20429;-67
2021/06/05 05:47:54;;;;;;;72.43;45.40;;;18.20;99.90;;;;;;5005679;28;20175;-67
2021/06/05 05:50:20;;;;;;;68.77;43.40;;;18.20;99.90;;;;;;5002786;28;20510;-67
2021/06/05 05:52:47;;;;;;;67.73;44.27;;;18.20;99.90;;;;;;5009021;28;20436;-67
2021/06/05 05:55:14;;;;;;;68.80;45.87;;;18.20;99.90;;;;;;5008378;28;20435;-67
2021/06/05 05:57:40;;;;;;;73.83;46.40;;;18.20;99.90;;;;;;5009012;28;20425;-67
2021/06/05 06:00:09;;;;;;;77.67;46.77;;;18.20;99.90;;;;;;5009518;28;20789;-67
2021/06/05 06:02:34;;;;;;;71.90;45.60;;;18.20;99.90;;;;;;5025674;28;20508;-67
2021/06/05 06:05:00;;;;;;;74.70;49.00;;;18.20;99.90;;;;;;5000801;28;20416;-67
2021/06/05 06:07:25;;;;;;;68.90;43.67;;;18.20;99.90;;;;;;5004373;28;20236;-67
2021/06/05 06:09:52;;;;;;;66.17;45.80;;;18.20;99.90;;;;;;5009338;28;20275;-67
2021/06/05 06:12:17;;;;;;;77.60;47.70;;;18.20;99.90;;;;;;5010589;28;20167;-67
2021/06/05 06:14:43;;;;;;;74.03;48.00;;;18.20;99.90;;;;;;5008682;28;20474;-67
2021/06/05 06:17:09;;;;;;;67.10;42.93;;;18.20;99.90;;;;;;5009297;28;20173;-67
2021/06/05 06:19:34;;;;;;;77.17;47.13;;;18.20;99.90;;;;;;5003885;28;20444;-67
2021/06/05 06:22:00;;;;;;;69.00;44.73;;;18.20;99.90;;;;;;5004206;28;20180;-67
2021/06/05 06:24:26;;;;;;;68.73;47.03;;;18.20;99.90;;;;;;5003980;28;20194;-67
2021/06/05 06:26:51;;;;;;;67.00;45.63;;;18.20;99.90;;;;;;4999906;28;20575;-67
2021/06/05 06:29:21;;;;;;;75.53;48.30;;;18.30;99.90;;;;;;5008744;28;20185;-67
2021/06/05 06:31:48;;;;;;;76.33;48.77;;;18.20;99.90;;;;;;5009698;28;20306;-67
2021/06/05 06:34:14;;;;;;;76.13;50.10;;;18.30;99.90;;;;;;5004576;28;20427;-67
2021/06/05 06:36:44;;;;;;;68.77;48.50;;;18.30;99.90;;;;;;5006412;28;20429;-67
2021/06/05 06:39:12;;;;;;;77.40;51.80;;;18.40;99.90;;;;;;5001913;28;20535;-67
2021/06/05 06:41:38;;;;;;;77.33;51.40;;;18.40;99.90;;;;;;5010076;28;20455;-67
2021/06/05 06:44:05;;;;;;;77.90;50.50;;;18.40;99.90;;;;;;5009381;28;20456;-67
2021/06/05 06:46:36;;;;;;;70.03;49.30;;;18.50;99.90;;;;;;5004963;28;20689;-67
2021/06/05 06:49:03;;;;;;;68.77;45.97;;;18.50;99.90;;;;;;5006032;28;20476;-67
2021/06/05 06:51:29;;;;;;;75.87;49.00;;;18.60;99.90;;;;;;4997596;28;20496;-67
2021/06/05 06:53:55;;;;;;;69.73;49.00;;;18.60;99.90;;;;;;5004761;28;20420;-67
2021/06/05 06:56:21;;;;;;;75.27;48.40;;;18.60;99.90;;;;;;5006608;28;20428;-67
2021/06/05 06:58:48;;;;;;;67.80;47.83;;;18.60;99.90;;;;;;5006588;28;20973;-67
2021/06/05 07:01:15;;;;;;;63.67;45.33;;;18.70;99.90;;;;;;5010958;28;20430;-67
2021/06/05 07:03:41;;;;;;;70.50;46.33;;;18.70;99.90;;;;;;5004276;28;20435;-67
2021/06/05 07:06:07;;;;;;;62.90;45.37;;;18.70;99.90;;;;;;5007939;28;20749;-67
2021/06/05 07:08:35;;;;;;;64.90;46.70;;;18.60;99.90;;;;;;5006539;28;20179;-67
2021/06/05 07:11:07;;;;;;;61.60;41.83;;;18.60;99.90;;;;;;4995743;28;20453;-67
2021/06/05 07:13:33;;;;;;;54.50;41.03;;;18.70;99.90;;;;;;5002599;28;20428;-67
2021/06/05 07:15:59;;;;;;;47.77;38.03;;;18.70;99.90;;;;;;5002726;28;20478;-67
2021/06/05 07:18:27;;;;;;;46.10;37.57;;;18.80;99.90;;;;;;5007556;28;20435;-67
2021/06/05 07:20:53;;;;;;;46.23;35.67;;;18.90;99.90;;;;;;5005760;28;20708;-67
2021/06/05 07:23:22;;;;;;;43.10;34.67;;;18.90;99.90;;;;;;5006689;28;20431;-67
2021/06/05 07:25:49;;;;;;;43.87;35.07;;;18.90;99.90;;;;;;5009167;28;20196;-67
2021/06/05 07:28:16;;;;;;;39.60;34.67;;;18.90;99.90;;;;;;5004374;28;20946;-67
2021/06/05 07:30:43;;;;;;;41.40;35.73;;;18.90;99.90;;;;;;5008102;28;20613;-67
2021/06/05 07:33:10;;;;;;;41.37;34.07;;;18.90;99.90;;;;;;5000667;28;20427;-67
2021/06/05 07:35:35;;;;;;;37.17;32.03;;;18.90;99.90;;;;;;4995740;28;20418;-67
2021/06/05 07:38:01;;;;;;;35.20;31.10;;;18.90;99.90;;;;;;5009421;28;20604;-67
2021/06/05 07:40:27;;;;;;;38.20;31.83;;;18.90;99.90;;;;;;5005186;28;20181;-67
2021/06/05 07:42:52;;;;;;;39.30;32.43;;;18.90;99.90;;;;;;5007514;28;20760;-67
2021/06/05 07:45:18;;;;;;;37.50;31.47;;;18.90;99.90;;;;;;5007444;28;20183;-67
2021/06/05 07:47:44;;;;;;;37.37;33.37;;;18.90;99.90;;;;;;4995117;28;20585;-67
2021/06/05 07:50:11;;;;;;;34.97;30.47;;;18.90;99.90;;;;;;4989229;28;20200;-67
2021/06/05 07:52:38;;;;;;;35.37;30.03;;;18.90;99.90;;;;;;5001652;28;20203;-67
2021/06/05 07:55:06;;;;;;;34.40;29.00;;;18.90;99.90;;;;;;4998672;28;20428;-67
2021/06/05 07:57:32;;;;;;;31.80;28.00;;;18.90;99.90;;;;;;5007150;28;20432;-67
2021/06/05 07:59:57;;;;;;;36.33;30.17;;;18.90;99.90;;;;;;5005326;28;20458;-67
2021/06/05 08:02:23;;;;;;;33.63;29.80;;;18.90;99.90;;;;;;5006625;28;20599;-67
2021/06/05 08:04:49;;;;;;;36.57;29.70;;;18.90;99.90;;;;;;5000105;28;20528;-67
2021/06/05 08:07:14;;;;;;;34.93;31.10;;;19.00;99.90;;;;;;5006450;28;20208;-67
2021/06/05 08:09:40;;;;;;;34.43;30.17;;;19.10;99.90;;;;;;5005626;28;20204;-67
2021/06/05 08:12:07;;;;;;;36.60;30.50;;;19.10;99.90;;;;;;5007936;28;20173;-67
2021/06/05 08:14:33;;;;;;;35.57;30.83;;;19.10;99.90;;;;;;5009035;28;20177;-67
2021/06/05 08:16:59;;;;;;;35.33;29.33;;;19.20;99.90;;;;;;5006859;28;20443;-67
2021/06/05 08:19:25;;;;;;;36.17;32.07;;;19.20;99.90;;;;;;5007201;28;20786;-67
2021/06/05 08:21:50;;;;;;;36.53;31.07;;;19.20;99.90;;;;;;5006337;28;20432;-67
2021/06/05 08:24:18;;;;;;;34.73;30.93;;;19.20;99.90;;;;;;5001523;28;20216;-67
2021/06/05 08:26:45;;;;;;;35.83;31.07;;;19.20;99.90;;;;;;5005080;28;20537;-67
2021/06/05 08:29:10;;;;;;;34.47;29.97;;;19.20;99.90;;;;;;5003876;28;20435;-67
2021/06/05 08:31:37;;;;;;;32.00;28.70;;;19.30;99.90;;;;;;5007209;28;20663;-67
2021/06/05 08:34:04;;;;;;;32.13;28.00;;;19.30;99.90;;;;;;4999250;28;20693;-67
2021/06/05 08:36:31;;;;;;;29.20;26.17;;;19.40;99.90;;;;;;5008056;28;20475;-67
2021/06/05 08:38:57;;;;;;;27.87;24.87;;;19.50;99.90;;;;;;5004208;28;20589;-67
2021/06/05 08:41:28;;;;;;;26.80;23.60;;;19.60;99.90;;;;;;5008042;28;20438;-67
2021/06/05 08:44:02;;;;;;;26.77;23.73;;;19.80;99.90;;;;;;5006589;28;20471;-67
2021/06/05 08:46:32;;;;;;;26.43;22.40;;;19.90;99.90;;;;;;5008673;28;20472;-67
2021/06/05 08:49:01;;;;;;;27.73;23.27;;;20.00;99.90;;;;;;4998684;28;20435;-67
2021/06/05 08:51:45;;;;;;;29.20;24.50;;;20.00;99.90;;;;;;5005378;28;20607;-67
2021/06/05 08:54:41;;;;;;;30.90;25.13;;;19.90;99.90;;;;;;5005030;28;20990;-67
2021/06/05 08:57:29;;;;;;;33.97;27.10;;;19.90;99.90;;;;;;5006989;28;20419;-67
2021/06/05 08:59:58;;;;;;;34.33;25.70;;;19.90;99.90;;;;;;5006676;28;20505;-67
2021/06/05 09:02:26;;;;;;;31.67;26.77;;;19.80;99.90;;;;;;5006780;28;20428;-67
2021/06/05 09:04:54;;;;;;;31.43;26.43;;;19.80;99.90;;;;;;5001993;28;20424;-67
2021/06/05 09:07:21;;;;;;;32.13;26.40;;;19.90;99.90;;;;;;5008974;28;21007;-67
2021/06/05 09:09:49;;;;;;;27.33;24.33;;;19.90;99.90;;;;;;5008307;28;20500;-67
2021/06/05 09:12:16;;;;;;;25.80;23.10;;;20.00;99.90;;;;;;5010014;28;20474;-67
2021/06/05 09:14:43;;;;;;;28.00;24.00;;;20.20;99.90;;;;;;5009979;28;20435;-67
2021/06/05 09:17:21;;;;;;;26.33;23.27;;;20.30;99.90;;;;;;5012114;28;20836;-67
2021/06/05 09:20:22;;;;;;;28.10;24.47;;;20.30;99.90;;;;;;5010776;28;20431;-67
2021/06/05 09:22:47;;;;;;;28.73;25.00;;;20.30;99.90;;;;;;5003341;28;20431;-67
2021/06/05 09:25:28;;;;;;;30.20;25.70;;;20.20;99.90;;;;;;5011376;28;20920;-67
2021/06/05 09:28:09;;;;;;;33.90;26.20;;;20.20;99.90;;;;;;5003942;28;20556;-67
2021/06/05 09:30:37;;;;;;;30.40;24.80;;;20.20;99.90;;;;;;5010147;28;21091;-67
2021/06/05 09:33:08;;;;;;;27.00;23.70;;;20.30;99.90;;;;;;5010053;28;20887;-67
2021/06/05 09:35:40;;;;;;;32.00;24.73;;;20.50;99.90;;;;;;4999040;28;20436;-67
2021/06/05 09:38:23;;;;;;;30.70;24.40;;;20.70;99.90;;;;;;5004046;28;20452;-67
2021/06/05 09:41:01;;;;;;;27.43;22.10;;;21.00;99.90;;;;;;5009597;28;20955;-67
2021/06/05 09:43:27;;;;;;;24.77;21.60;;;21.40;99.90;;;;;;5008445;28;20447;-67
2021/06/05 09:46:12;;;;;;;26.77;21.33;;;21.70;99.90;;;;;;5010618;28;20965;-67
2021/06/05 09:48:46;;;;;;;24.37;21.77;;;21.90;99.90;;;;;;5011496;28;20996;-67
2021/06/05 09:51:30;;;;;;;25.93;22.03;;;22.10;99.90;;;;;;5011156;28;20561;-67
2021/06/05 09:54:00;;;;;;;29.80;24.27;;;22.20;99.90;;;;;;5010267;28;20460;-67
2021/06/05 09:56:29;;;;;;;26.80;23.30;;;22.30;99.90;;;;;;5001503;28;20824;-67
2021/06/05 09:59:05;;;;;;;25.70;22.60;;;22.30;99.90;;;;;;4999538;28;20455;-67
2021/06/05 10:01:33;;;;;;;25.10;22.43;;;22.30;99.90;;;;;;5007204;28;20486;-68
2021/06/05 10:04:07;;;;;;;25.10;22.57;;;22.20;99.90;;;;;;5006521;28;20440;-68
2021/06/05 10:06:43;;;;;;;28.60;23.10;;;22.20;99.90;;;;;;5000588;28;20439;-67
2021/06/05 10:09:30;;;;;;;24.10;21.60;;;22.30;99.90;;;;;;5009355;28;20535;-67
2021/06/05 10:12:02;;;;;;;27.27;21.43;;;22.40;99.90;;;;;;5008721;28;20444;-67
2021/06/05 10:14:33;;;;;;;27.03;23.60;;;22.50;99.90;;;;;;5008729;28;20471;-67
2021/06/05 10:17:07;;;;;;;26.77;22.10;;;22.70;99.90;;;;;;5008382;28;20543;-67
2021/06/05 10:19:54;;;;;;;26.57;23.70;;;22.80;99.90;;;;;;5008189;28;20439;-67
2021/06/05 10:22:22;;;;;;;24.03;21.57;;;22.90;99.90;;;;;;4999466;28;20439;-67
2021/06/05 10:24:47;;;;;;;24.07;21.53;;;23.00;99.90;;;;;;5001916;28;20534;-67
2021/06/05 10:27:23;;;;;;;26.50;23.00;;;23.00;99.90;;;;;;5000780;28;20514;-67
2021/06/05 10:29:59;;;;;;;25.57;22.70;;;23.20;99.90;;;;;;5009716;28;20736;-67
2021/06/05 10:32:30;;;;;;;25.50;22.87;;;23.40;99.90;;;;;;5009451;28;20439;-67
2021/06/05 10:35:07;;;;;;;23.73;20.13;;;23.50;99.90;;;;;;5008465;28;20435;-67
2021/06/05 10:37:37;;;;;;;23.80;20.67;;;23.60;99.90;;;;;;5008221;28;20494;-67
2021/06/05 10:40:07;;;;;;;21.70;19.50;;;23.60;99.90;;;;;;5005405;28;20542;-67
2021/06/05 10:42:51;;;;;;;24.87;21.40;;;23.70;99.90;;;;;;5010641;28;20439;-67
2021/06/05 10:45:30;;;;;;;28.13;24.20;;;23.70;99.90;;;;;;5009756;28;20443;-67
2021/06/05 10:48:05;;;;;;;24.23;21.63;;;23.70;99.90;;;;;;5009924;28;20428;-67
2021/06/05 10:51:08;;;;;;;26.23;23.63;;;23.60;99.90;;;;;;5009211;28;20459;-67
2021/06/05 10:54:07;;;;;;;24.23;21.67;;;23.50;99.90;;;;;;5007660;28;20992;-67
2021/06/05 10:56:43;;;;;;;21.63;19.33;;;23.60;99.90;;;;;;4991328;28;20473;-67
2021/06/05 10:59:36;;;;;;;24.73;21.43;;;23.80;99.90;;;;;;5001407;28;20451;-67
2021/06/05 11:02:02;;;;;;;23.17;20.67;;;24.00;99.90;;;;;;5000090;28;20443;-67
2021/06/05 11:04:37;;;;;;;27.07;24.27;;;24.10;99.90;;;;;;5005644;28;20444;-67
2021/06/05 11:07:02;;;;;;;23.23;20.53;;;24.10;99.90;;;;;;5008304;28;20711;-67
2021/06/05 11:09:31;;;;;;;24.70;22.30;;;24.20;99.90;;;;;;5008342;28;20460;-67
2021/06/05 11:12:23;;;;;;;25.20;22.60;;;24.20;99.90;;;;;;5008821;28;20178;-67
2021/06/05 11:14:50;;;;;;;26.00;23.30;;;24.20;99.90;;;;;;5001835;28;20547;-67
2021/06/05 11:17:19;;;;;;;27.17;24.37;;;24.20;99.90;;;;;;5004848;28;20444;-67
2021/06/05 11:19:50;;;;;;;22.50;19.60;;;24.20;99.90;;;;;;5007062;28;20775;-67
2021/06/05 11:22:21;;;;;;;25.70;22.77;;;24.20;99.90;;;;;;5002876;28;20955;-67
2021/06/05 11:25:06;;;;;;;25.00;21.63;;;24.10;99.90;;;;;;5002728;28;20592;-67
2021/06/05 11:27:38;;;;;;;22.70;20.30;;;23.90;99.90;;;;;;4998601;28;20428;-67
2021/06/05 11:30:22;;;;;;;21.80;19.67;;;23.80;99.90;;;;;;4990770;28;20539;-67
2021/06/05 11:33:00;;;;;;;23.60;21.13;;;23.60;99.90;;;;;;5000758;28;20594;-67
2021/06/05 11:35:44;;;;;;;22.90;20.53;;;23.40;99.90;;;;;;5004958;28;20427;-67
2021/06/05 11:38:33;;;;;;;23.77;18.70;;;23.30;99.90;;;;;;5007998;28;20795;-67
2021/06/05 11:41:30;;;;;;;23.10;20.00;;;23.20;99.90;;;;;;5008875;28;20807;-67
2021/06/05 11:44:37;;;;;;;22.87;20.23;;;23.20;99.90;;;;;;5001243;28;20423;-67
2021/06/05 11:47:18;;;;;;;22.97;20.63;;;23.10;99.90;;;;;;5001717;28;20432;-67
2021/06/05 11:49:45;;;;;;;22.20;19.90;;;23.10;99.90;;;;;;5007968;28;20468;-67
2021/06/05 11:52:26;;;;;;;23.90;21.50;;;23.10;99.90;;;;;;4998000;28;20424;-67
2021/06/05 11:54:54;;;;;;;22.37;19.93;;;23.20;99.90;;;;;;5008733;28;20994;-67
2021/06/05 11:57:31;;;;;;;24.37;21.50;;;23.30;99.90;;;;;;5003959;28;20632;-67
2021/06/05 12:00:00;;;;;;;22.87;20.23;;;23.40;99.90;;;;;;5006316;28;20534;-67
2021/06/05 12:02:34;;;;;;;24.23;21.63;;;23.50;99.90;;;;;;4999958;28;20437;-67
2021/06/05 12:05:05;;;;;;;23.33;20.80;;;23.50;99.90;;;;;;4997576;28;21082;-67
2021/06/05 12:07:32;;;;;;;25.50;21.60;;;23.50;99.90;;;;;;5013705;28;20824;-67
2021/06/05 12:09:59;;;;;;;27.43;23.10;;;23.50;99.90;;;;;;4999513;28;20464;-67
2021/06/05 12:12:32;;;;;;;24.53;21.80;;;23.40;99.90;;;;;;5007210;28;20439;-67
2021/06/05 12:15:09;;;;;;;31.17;25.50;;;23.40;99.90;;;;;;5005080;28;20541;-67
2021/06/05 12:17:41;;;;;;;27.97;22.83;;;23.30;99.90;;;;;;5004371;28;20536;-67
2021/06/05 12:20:09;;;;;;;33.30;25.87;;;23.20;99.90;;;;;;5005903;28;20428;-67
2021/06/05 12:22:36;;;;;;;30.43;25.20;;;23.20;99.90;;;;;;5003722;28;20942;-67
2021/06/05 12:25:03;;;;;;;30.23;22.27;;;23.20;99.90;;;;;;4995564;28;20424;-67
2021/06/05 12:27:37;;;;;;;28.67;25.07;;;23.20;99.90;;;;;;5001424;28;20761;-67
2021/06/05 12:30:10;;;;;;;30.00;25.50;;;23.30;99.90;;;;;;5005934;28;20456;-67
2021/06/05 12:32:36;;;;;;;25.77;22.23;;;23.30;99.90;;;;;;4997530;28;20516;-67
2021/06/05 12:35:25;;;;;;;32.40;25.60;;;23.40;99.90;;;;;;4990534;28;20547;-67
2021/06/05 12:37:55;;;;;;;33.20;28.33;;;23.50;99.90;;;;;;4997976;28;20193;-67
2021/06/05 12:40:29;;;;;;;30.00;26.00;;;23.50;99.90;;;;;;5005717;28;20482;-67